.
WxDataArchive / Data Records for 2015-06-22
2015-06-21 June 2015 2015-06-23

Data Records for Monday, 22 June 2015

Time	Temp	Chill	HIndex	Humid	Dewpt	 Wind 	HiWind	WindDir	Rain 	Barom
-----	----	-----	------	-----	-----	------	------	-------	-----	-----
00:00	70.1	70.1	70.1	83	64.7	0	0	---	0.00	29.943 
00:05	70.1	70.1	70.1	83	64.7	0	0	---	0.00	29.943 
00:10	70.3	70.3	70.3	83	64.9	0	0	---	0.00	29.943 
00:15	70.3	70.3	70.3	84	65.2	0	0	---	0.00	29.950 
00:20	70.3	70.3	70.3	84	65.2	0	0	---	0.00	29.950 
00:25	70.1	70.1	70.1	84	65.0	0	0	---	0.00	29.950 
00:30	70.1	70.1	70.1	84	65.0	0	0	---	0.00	29.957 
00:35	70.1	70.1	70.1	84	65.0	0	0	---	0.00	29.957 
00:40	69.9	69.9	69.9	84	64.8	0	0	---	0.00	29.957 
00:45	69.9	69.9	69.9	85	65.2	0	0	---	0.00	29.956 
00:50	70.1	70.1	70.1	85	65.4	0	0	---	0.00	29.956 
00:55	70.1	70.1	70.1	85	65.4	0	0	---	0.00	29.956 
01:00	70.1	70.1	70.1	85	65.4	0	0	---	0.00	29.950 
01:05	69.9	69.9	69.9	85	65.2	0	0	---	0.00	29.950 
01:10	69.9	69.9	69.9	85	65.2	0	0	---	0.00	29.950 
01:15	69.8	69.8	69.8	86	65.4	0	0	---	0.00	29.948 
01:20	69.6	69.6	69.6	86	65.2	0	0	---	0.00	29.948 
01:25	69.6	69.6	69.6	86	65.2	0	0	---	0.00	29.948 
01:30	69.4	69.4	69.4	86	65.0	0	0	---	0.00	29.953 
01:35	69.3	69.3	69.3	87	65.3	0	0	---	0.00	29.953 
01:40	69.1	69.1	69.1	88	65.4	0	0	---	0.00	29.953 
01:45	68.9	68.9	68.9	88	65.2	0	0	---	0.00	29.953 
01:50	68.9	68.9	68.9	89	65.5	0	0	---	0.00	29.953 
01:55	69.1	69.1	69.1	89	65.7	0	1	292	0.00	29.953 
02:00	69.1	69.1	69.1	90	66.0	0	0	---	0.00	29.955 
02:05	69.3	69.3	69.3	90	66.2	0	0	---	0.00	29.955 
02:10	69.3	69.3	69.3	90	66.2	0	0	---	0.00	29.955 
02:15	69.4	69.4	69.4	90	66.3	0	0	---	0.00	29.951 
02:20	69.4	69.4	69.4	90	66.3	0	0	---	0.00	29.951 
02:25	69.4	69.4	69.4	90	66.3	0	0	---	0.00	29.951 
02:30	69.3	69.3	69.3	90	66.2	0	0	---	0.00	29.948 
02:35	69.3	69.3	69.3	90	66.2	0	0	---	0.00	29.948 
02:40	69.1	69.1	69.1	91	66.4	0	0	---	0.00	29.948 
02:45	68.9	68.9	68.9	91	66.2	0	0	---	0.00	29.947 
02:50	68.9	68.9	68.9	91	66.2	0	0	---	0.00	29.947 
02:55	68.9	68.9	68.9	91	66.2	0	0	---	0.00	29.947 
03:00	68.8	68.8	68.8	91	66.1	0	0	---	0.00	29.947 
03:05	68.8	68.8	68.8	91	66.1	0	0	---	0.00	29.947 
03:10	68.6	68.6	68.6	91	65.9	0	0	---	0.00	29.947 
03:15	68.6	68.6	68.6	91	65.9	0	0	---	0.00	29.948 
03:20	68.4	68.4	68.4	92	66.0	0	0	---	0.00	29.948 
03:25	68.4	68.4	68.4	92	66.0	0	0	---	0.00	29.948 
03:30	68.4	68.4	68.4	92	66.0	0	0	---	0.00	29.952 
03:35	68.4	68.4	68.4	92	66.0	0	0	---	0.00	29.952 
03:40	68.4	68.4	68.4	92	66.0	0	0	---	0.00	29.952 
03:45	68.4	68.4	68.4	92	66.0	0	0	---	0.00	29.952 
03:50	68.4	68.4	68.4	92	66.0	0	0	---	0.00	29.952 
03:55	68.4	68.4	68.4	92	66.0	0	0	---	0.00	29.952 
04:00	68.4	68.4	68.4	92	66.0	0	0	---	0.00	29.956 
04:05	68.3	68.3	68.3	92	65.9	0	0	---	0.00	29.956 
04:10	68.3	68.3	68.3	92	65.9	0	0	---	0.00	29.956 
04:15	68.3	68.3	68.3	92	65.9	0	0	---	0.00	29.951 
04:20	68.1	68.1	68.1	92	65.7	0	0	---	0.00	29.951 
04:25	68.3	68.3	68.3	93	66.2	0	0	---	0.00	29.951 
04:30	68.3	68.3	68.3	93	66.2	0	0	---	0.00	29.954 
04:35	68.3	68.3	68.3	93	66.2	0	0	---	0.00	29.954 
04:40	68.4	68.4	68.4	93	66.3	0	1	292	0.00	29.954 
04:45	68.8	68.8	68.8	93	66.7	0	0	---	0.00	29.959 
04:50	68.8	68.8	68.8	93	66.7	0	0	---	0.00	29.959 
04:55	68.8	68.8	68.8	93	66.7	0	0	---	0.00	29.959 
05:00	68.8	68.8	68.8	93	66.7	0	0	---	0.00	29.951 
05:05	68.8	68.8	68.8	94	67.0	0	0	---	0.00	29.951 
05:10	68.8	68.8	68.8	94	67.0	0	0	---	0.00	29.951 
05:15	68.8	68.8	68.8	94	67.0	0	0	---	0.00	29.960 
05:20	68.6	68.6	68.6	94	66.8	0	0	---	0.00	29.960 
05:25	68.6	68.6	68.6	94	66.8	0	0	---	0.00	29.960 
05:30	68.6	68.6	68.6	94	66.8	0	0	---	0.00	29.960 
05:35	68.6	68.6	68.6	94	66.8	0	0	---	0.00	29.960 
05:40	68.4	68.4	68.4	94	66.6	0	0	---	0.00	29.960 
05:45	68.4	68.4	68.4	94	66.6	0	0	---	0.00	29.958 
05:50	68.4	68.4	68.4	94	66.6	0	0	---	0.00	29.958 
05:55	68.4	68.4	68.4	94	66.6	0	0	---	0.00	29.958 
06:00	68.4	68.4	68.4	94	66.6	0	0	---	0.00	29.959 
06:05	68.3	68.3	68.3	94	66.5	0	0	---	0.00	29.959 
06:10	68.3	68.3	68.3	94	66.5	0	0	---	0.00	29.959 
06:15	68.3	68.3	68.3	94	66.5	0	0	---	0.00	29.961 
06:20	68.1	68.1	68.1	94	66.3	0	0	---	0.00	29.961 
06:25	68.1	68.1	68.1	94	66.3	0	0	---	0.00	29.961 
06:30	68.1	68.1	68.1	94	66.3	0	0	---	0.00	29.962 
06:35	67.9	67.9	67.9	95	66.4	0	0	---	0.00	29.962 
06:40	68.1	68.1	68.1	95	66.6	0	0	---	0.00	29.962 
06:45	68.1	68.1	68.1	95	66.6	0	0	---	0.00	29.959 
06:50	68.3	68.3	68.3	95	66.8	0	0	---	0.00	29.959 
06:55	68.4	68.4	68.4	95	66.9	0	0	---	0.00	29.959 
07:00	68.8	68.8	68.8	95	67.3	0	1	112	0.00	29.959 
07:05	68.8	68.8	68.8	95	67.3	0	1	112	0.00	29.959 
07:10	68.8	68.8	68.8	95	67.3	0	2	112	0.00	29.959 
07:15	68.8	68.8	68.8	95	67.3	0	2	112	0.00	29.962 
07:20	68.8	68.8	68.8	95	67.3	1	3	112	0.00	29.962 
07:25	68.8	68.8	68.8	95	67.3	0	4	112	0.00	29.962 
07:30	68.9	68.9	68.9	95	67.4	0	2	112	0.00	29.967 
07:35	68.9	68.9	68.9	95	67.4	0	3	112	0.00	29.967 
07:40	68.9	68.9	68.9	95	67.4	0	3	112	0.00	29.967 
07:45	69.1	69.1	69.1	95	67.6	0	1	338	0.00	29.964 
07:50	69.3	69.3	69.3	95	67.8	0	1	338	0.00	29.964 
07:55	69.6	69.6	69.6	95	68.1	0	1	338	0.00	29.964 
08:00	69.8	69.8	69.8	95	68.3	0	1	338	0.00	29.958 
08:05	69.9	69.9	69.9	95	68.4	0	1	338	0.00	29.958 
08:10	70.3	70.3	70.3	95	68.8	0	1	338	0.00	29.958 
08:15	70.6	70.6	70.6	95	69.1	0	0	---	0.00	29.948 
08:20	71.1	71.1	71.1	95	69.6	0	1	338	0.00	29.948 
08:25	71.5	71.5	71.5	94	69.7	0	1	338	0.00	29.948 
08:30	71.6	71.6	71.6	94	69.8	0	1	338	0.00	29.946 
08:35	72.1	72.1	72.1	94	70.3	0	1	338	0.00	29.946 
08:40	72.7	72.7	72.7	94	70.9	0	2	338	0.00	29.946 
08:45	72.8	72.8	72.8	92	70.3	0	1	338	0.00	29.943 
08:50	72.8	72.8	72.8	92	70.3	0	2	338	0.00	29.943 
08:55	73.2	73.2	73.2	91	70.4	0	2	338	0.00	29.943 
09:00	73.5	73.5	73.5	90	70.4	0	2	338	0.00	29.930 
09:05	73.9	73.9	73.9	90	70.8	0	1	338	0.00	29.930 
09:10	74.7	74.7	74.7	89	71.2	0	1	338	0.00	29.930 
09:15	75.4	75.4	75.4	86	70.9	0	1	338	0.00	29.929 
09:20	76.0	76.0	76.7	84	70.8	0	1	338	0.00	29.929 
09:25	76.8	76.8	78.2	82	70.9	0	1	338	0.00	29.929 
09:30	77.4	77.4	79.2	80	70.7	1	2	338	0.00	29.919 
09:35	77.7	77.7	79.8	79	70.7	0	2	338	0.00	29.919 
09:40	78.1	78.1	80.5	79	71.0	0	2	338	0.00	29.919 
09:45	78.3	78.3	80.8	78	70.9	0	4	68	0.00	29.897 
09:50	78.6	78.6	81.3	78	71.1	0	1	68	0.00	29.897 
09:55	78.8	78.8	81.6	77	71.0	0	2	68	0.00	29.897 
10:00	79.0	79.0	82.0	77	71.2	0	3	68	0.00	29.909 
10:05	79.2	79.2	82.3	77	71.3	0	2	68	0.00	29.909 
10:10	79.2	79.2	82.3	77	71.3	0	2	68	0.00	29.909 
10:15	79.4	79.4	82.5	75	70.8	1	3	68	0.00	29.914 
10:20	79.4	79.4	82.6	76	71.2	0	1	68	0.00	29.914 
10:25	79.2	79.2	82.3	77	71.3	0	1	68	0.00	29.914 
10:30	79.4	79.4	82.7	77	71.5	0	2	68	0.00	29.910 
10:35	79.6	79.6	83.1	77	71.7	0	1	68	0.00	29.910 
10:40	79.8	79.8	83.4	77	71.9	0	2	68	0.00	29.910 
10:45	80.1	80.1	83.8	75	71.4	1	3	68	0.00	29.909 
10:50	80.1	80.1	83.6	74	71.0	0	2	68	0.00	29.909 
10:55	80.3	80.3	83.9	73	70.8	0	2	68	0.00	29.909 
11:00	80.5	80.5	84.2	73	71.0	0	3	68	0.00	29.910 
11:05	80.9	80.9	85.1	74	71.8	0	2	68	0.00	29.910 
11:10	81.1	81.1	85.2	72	71.2	0	2	90	0.00	29.910 
11:15	81.2	81.2	85.5	73	71.7	0	2	90	0.00	29.901 
11:20	81.2	81.2	85.2	71	70.9	1	3	90	0.00	29.901 
11:25	81.4	81.4	85.9	73	71.9	0	1	90	0.00	29.901 
11:30	81.2	81.2	85.3	72	71.3	0	2	90	0.00	29.924 
11:35	81.2	81.2	85.5	73	71.7	0	2	90	0.00	29.924 
11:40	81.2	81.2	85.3	72	71.3	0	1	90	0.00	29.924 
11:45	81.1	81.1	85.2	72	71.2	0	2	90	0.00	29.944 
11:50	80.7	80.7	84.4	72	70.8	0	2	90	0.00	29.944 
11:55	80.3	80.3	83.7	72	70.4	0	2	90	0.00	29.944 
12:00	80.5	80.5	84.4	74	71.4	0	2	90	0.00	29.958 
12:05	80.7	80.7	84.6	73	71.2	0	1	90	0.00	29.958 
12:10	80.9	80.9	85.0	73	71.4	0	1	90	0.00	29.958 
12:15	81.2	81.2	85.5	73	71.7	0	2	90	0.00	29.959 
12:20	81.4	81.4	85.9	73	71.9	0	3	90	0.00	29.959 
12:25	81.4	81.4	85.7	72	71.5	0	4	90	0.00	29.959 
12:30	81.1	81.1	85.2	72	71.2	0	1	90	0.00	29.966 
12:35	80.7	80.7	84.6	73	71.2	0	2	90	0.00	29.966 
12:40	80.5	80.5	84.4	74	71.4	0	1	90	0.00	29.966 
12:45	80.5	80.5	84.4	74	71.4	0	2	90	0.00	29.958 
12:50	80.9	80.9	85.3	75	72.2	0	2	90	0.00	29.958 
12:55	81.4	81.4	86.5	76	73.1	0	0	---	0.00	29.958 
13:00	82.0	82.0	87.3	74	72.9	0	0	---	0.00	29.941 
13:05	82.4	82.4	87.7	72	72.4	0	0	---	0.00	29.941 
13:10	82.2	82.2	87.5	73	72.7	0	0	---	0.00	29.941 
13:15	82.4	82.4	87.9	73	72.9	0	0	---	0.00	29.927 
13:20	82.6	82.6	88.4	73	73.0	0	1	90	0.00	29.927 
13:25	82.6	82.6	88.1	72	72.6	0	2	90	0.00	29.927 
13:30	82.4	82.4	87.7	72	72.4	0	1	90	0.00	29.929 
13:35	82.2	82.2	87.3	72	72.2	0	2	90	0.00	29.929 
13:40	82.0	82.0	87.1	73	72.5	0	3	90	0.00	29.929 
13:45	82.2	82.2	87.5	73	72.7	1	3	90	0.00	29.917 
13:50	82.4	82.4	87.9	73	72.9	0	3	90	0.00	29.917 
13:55	82.6	82.6	88.4	73	73.0	0	2	90	0.00	29.917 
14:00	82.8	82.8	88.8	73	73.2	0	2	68	0.00	29.897 
14:05	83.0	83.0	88.9	72	73.0	0	3	68	0.00	29.897 
14:10	83.0	83.0	88.7	71	72.6	0	2	338	0.00	29.897 
14:15	83.0	83.0	88.9	72	73.0	0	2	338	0.00	29.926 
14:20	83.2	83.2	89.4	72	73.2	0	4	338	0.00	29.926 
14:25	83.2	83.2	89.7	73	73.6	0	4	292	0.00	29.926 
14:30	83.4	83.4	90.1	73	73.8	0	1	292	0.00	29.915 
14:35	83.2	83.2	89.1	71	72.8	0	2	292	0.00	29.915 
14:40	83.0	83.0	88.9	72	73.0	1	3	292	0.00	29.915 
14:45	82.8	82.8	88.8	73	73.2	0	3	292	0.00	29.921 
14:50	82.8	82.8	88.8	73	73.2	0	4	292	0.00	29.921 
14:55	82.8	82.8	88.8	73	73.2	0	1	292	0.00	29.921 
15:00	83.2	83.2	90.0	74	74.0	0	3	292	0.00	29.908 
15:05	83.4	83.4	89.8	72	73.4	1	3	292	0.00	29.908 
15:10	83.6	83.6	90.2	72	73.6	0	2	315	0.00	29.908 
15:15	83.4	83.4	90.1	73	73.8	0	3	315	0.00	29.900 
15:20	83.6	83.6	90.5	73	74.0	1	3	315	0.00	29.900 
15:25	83.8	83.8	90.7	72	73.8	0	3	315	0.00	29.900 
15:30	84.1	84.1	91.0	71	73.7	1	4	315	0.00	29.878 
15:35	84.1	84.1	90.7	70	73.2	1	3	68	0.00	29.878 
15:40	84.3	84.3	91.1	70	73.4	0	3	0	0.00	29.878 
15:45	84.5	84.5	91.6	70	73.6	1	3	270	0.00	29.854 
15:50	84.7	84.7	91.7	69	73.4	1	3	270	0.00	29.854 
15:55	84.7	84.7	91.7	69	73.4	1	4	112	0.00	29.854 
16:00	84.3	84.3	90.5	68	72.6	1	4	270	0.00	29.848 
16:05	84.1	84.1	90.0	68	72.4	0	3	270	0.00	29.848 
16:10	84.0	84.0	90.2	69	72.7	1	4	270	0.00	29.848 
16:15	83.8	83.8	89.7	69	72.5	1	5	292	0.00	29.834 
16:20	83.6	83.6	89.6	70	72.8	1	4	248	0.00	29.834 
16:25	83.6	83.6	89.6	70	72.8	1	3	248	0.00	29.834 
16:30	83.4	83.4	89.2	70	72.6	1	3	248	0.00	29.832 
16:35	83.6	83.6	89.6	70	72.8	1	3	292	0.00	29.832 
16:40	83.8	83.8	89.7	69	72.5	1	4	225	0.00	29.832 
16:45	83.8	83.8	89.4	68	72.1	2	4	248	0.00	29.805 
16:50	83.8	83.8	90.0	70	72.9	1	3	270	0.00	29.805 
16:55	83.8	83.8	90.0	70	72.9	1	6	270	0.00	29.805 
17:00	84.0	84.0	90.2	69	72.7	1	4	270	0.00	29.790 
17:05	84.0	84.0	90.2	69	72.7	2	4	270	0.00	29.790 
17:10	84.5	84.5	91.2	69	73.2	1	5	270	0.00	29.790 
17:15	84.9	84.9	91.4	67	72.7	2	9	270	0.00	29.783 
17:20	85.3	85.3	92.6	68	73.5	2	7	315	0.00	29.783 
17:25	85.5	85.5	92.7	67	73.3	2	7	112	0.00	29.783 
17:30	85.5	85.5	91.2	63	71.4	2	7	248	0.00	29.767 
17:35	85.5	85.5	91.2	63	71.4	2	5	248	0.00	29.767 
17:40	85.7	85.7	91.2	62	71.1	2	5	338	0.00	29.767 
17:45	85.5	85.5	89.8	59	69.5	2	7	270	0.00	29.785 
17:50	85.3	85.3	89.8	60	69.8	1	4	292	0.00	29.785 
17:55	85.1	85.1	89.8	61	70.1	1	3	270	0.00	29.785 
18:00	85.1	85.1	90.1	62	70.6	1	5	270	0.00	29.771 
18:05	85.1	85.1	90.1	62	70.6	2	7	248	0.00	29.771 
18:10	84.9	84.9	89.7	62	70.4	1	5	292	0.00	29.771 
18:15	84.9	84.9	89.7	62	70.4	1	4	315	0.00	29.758 
18:20	84.7	84.7	89.6	63	70.7	1	5	270	0.00	29.758 
18:25	84.5	84.5	89.0	62	70.0	2	6	270	0.00	29.758 
18:30	84.5	84.5	89.3	63	70.5	2	5	292	0.00	29.764 
18:35	84.5	84.5	89.0	62	70.0	1	5	248	0.00	29.764 
18:40	84.5	84.5	89.3	63	70.5	2	4	270	0.00	29.764 
18:45	84.5	84.5	89.0	62	70.0	1	4	315	0.00	29.784 
18:50	84.1	84.1	88.2	62	69.6	1	4	315	0.00	29.784 
18:55	84.0	84.0	88.1	62	69.5	2	6	248	0.00	29.784 
19:00	84.1	84.1	88.2	62	69.6	2	6	270	0.00	29.786 
19:05	84.1	84.1	88.2	62	69.6	1	4	315	0.00	29.786 
19:10	84.1	84.1	88.5	63	70.1	1	6	270	0.00	29.786 
19:15	84.1	84.1	88.5	63	70.1	1	4	270	0.00	29.791 
19:20	84.1	84.1	88.8	64	70.6	1	4	270	0.00	29.791 
19:25	84.0	84.0	88.6	64	70.5	1	4	270	0.00	29.791 
19:30	84.0	84.0	88.9	65	70.9	0	2	270	0.00	29.774 
19:35	84.0	84.0	88.6	64	70.5	1	5	270	0.00	29.774 
19:40	83.8	83.8	88.3	64	70.3	1	4	338	0.00	29.774 
19:45	83.8	83.8	88.3	64	70.3	1	4	292	0.00	29.771 
19:50	83.8	83.8	88.3	64	70.3	1	3	270	0.00	29.771 
19:55	83.6	83.6	87.9	64	70.1	1	5	270	0.00	29.771 
20:00	83.4	83.4	87.6	64	69.9	1	3	270	0.00	29.784 
20:05	83.4	83.4	87.8	65	70.4	1	3	270	0.00	29.784 
20:10	83.4	83.4	87.8	65	70.4	1	7	248	0.00	29.784 
20:15	83.2	83.2	87.5	65	70.2	1	3	270	0.00	29.767 
20:20	83.2	83.2	87.5	65	70.2	0	3	270	0.00	29.767 
20:25	83.0	83.0	87.3	66	70.4	1	5	270	0.00	29.767 
20:30	83.0	83.0	87.3	66	70.4	1	3	270	0.00	29.767 
20:35	82.8	82.8	87.0	66	70.3	1	4	338	0.00	29.767 
20:40	82.8	82.8	87.0	66	70.3	0	2	270	0.00	29.767 
20:45	82.6	82.6	86.9	67	70.5	0	3	270	0.00	29.766 
20:50	82.6	82.6	86.9	67	70.5	1	4	270	0.00	29.766 
20:55	82.4	82.4	86.5	67	70.3	0	3	270	0.00	29.766 
21:00	82.2	82.2	86.4	68	70.6	1	5	270	0.00	29.751 
21:05	82.0	82.0	86.0	68	70.4	1	4	270	0.00	29.751 
21:10	82.0	82.0	86.2	69	70.8	1	3	270	0.00	29.751 
21:15	81.8	81.8	86.1	70	71.0	0	5	22	0.00	29.749 
21:20	81.6	81.6	85.7	70	70.8	1	4	292	0.00	29.749 
21:25	81.4	81.4	85.5	71	71.1	0	2	270	0.00	29.749 
21:30	81.2	81.2	85.2	71	70.9	0	3	270	0.00	29.749 
21:35	81.2	81.2	85.3	72	71.3	1	3	270	0.00	29.749 
21:40	81.1	81.1	85.2	72	71.2	1	3	270	0.00	29.749 
21:45	81.2	81.2	85.3	72	71.3	1	4	270	0.00	29.775 
21:50	81.2	81.2	85.2	71	70.9	0	2	270	0.00	29.775 
21:55	81.2	81.2	85.3	72	71.3	0	1	270	0.00	29.775 
22:00	81.2	81.2	85.3	72	71.3	0	3	270	0.00	29.780 
22:05	81.1	81.1	85.2	72	71.2	1	4	270	0.00	29.780 
22:10	81.1	81.1	85.2	72	71.2	1	4	270	0.00	29.780 
22:15	81.1	81.1	85.3	73	71.6	0	3	270	0.00	29.792 
22:20	81.1	81.1	85.3	73	71.6	0	3	270	0.00	29.792 
22:25	80.9	80.9	85.0	73	71.4	0	2	270	0.00	29.792 
22:30	80.9	80.9	85.0	73	71.4	1	3	270	0.00	29.783 
22:35	80.9	80.9	85.0	73	71.4	1	4	248	0.00	29.783 
22:40	80.9	80.9	85.1	74	71.8	0	2	248	0.00	29.783 
22:45	80.7	80.7	84.7	74	71.6	1	4	248	0.00	29.774 
22:50	80.7	80.7	84.7	74	71.6	0	3	0	0.00	29.774 
22:55	80.7	80.7	84.7	74	71.6	1	9	315	0.00	29.774 
23:00	80.7	80.7	84.9	75	72.0	2	6	270	0.00	29.756 
23:05	80.5	80.5	84.5	75	71.8	1	3	270	0.00	29.756 
23:10	80.3	80.3	84.3	76	72.0	1	3	292	0.00	29.756 
23:15	80.3	80.3	84.3	76	72.0	1	4	292	0.00	29.748 
23:20	80.1	80.1	84.0	77	72.2	0	4	270	0.00	29.748 
23:25	79.9	79.9	83.6	77	72.0	1	4	270	0.00	29.748 
23:30	79.9	79.9	83.8	78	72.4	1	3	248	0.00	29.745 
23:35	79.9	79.9	83.8	78	72.4	1	6	270	0.00	29.745 
23:40	79.8	79.8	83.7	79	72.7	1	4	270	0.00	29.745 
23:45	79.9	79.9	83.9	79	72.8	1	5	270	0.00	29.738 
23:50	79.8	79.8	83.7	79	72.7	1	5	270	0.00	29.738 
23:55	79.8	79.8	83.7	79	72.7	1	4	248	0.00	29.738 

CoCoRaHS
IN-AL-39
A2 Web Hosting
Creative Commons License
GoDaddy
search engine by freefind advanced

loaded 2018-11-21 00:38:38 • last modified 2010-11-18 10:43:29
Privacy PolicyDisclaimer
• wx.awcolley.com is powered by PmWiki v.2002016 •
• all content (unless otherwise noted) © 2018 A W Colley